Aérodrome :
LOGIN :

S'inscrire | Disclaimer

   EN    FR    IT 

 










Légende :    VFR   VFR Marginal   IFR   IFR Intensif   IFR Très Intensif
Visi : 
Plafond : 
>= 8 km
>= 3000ft
5 à 8 km
1000 à 3000 ft
1500m à 5 km
500 à 1000 ft
800 à 1500m
200 à 500 ft
< 800m
< 200 ft
Symboles :   Orages  Brouillard  Fortes neiges  Fortes précipitations  Vent > 20 kt
SIGMETs :   Divers  Orages  Givrage  Turbulence  Onde Orograph.  Cendres Volcan.







- Altitude de l'aérodrome : 245 ft
- Code IATA : BIQ
- Voir les cartes d'approche


LFBZ - Biarritz

DERNIER METAR :
  • 280030Z AUTO VRB03KT CAVOK 23/19 Q1012 NOSIG

METARs EXPIRÉS :
  • 280000Z AUTO 06004KT CAVOK 23/19 Q1012 NOSIG
  • 272330Z AUTO 08005KT 060V120 CAVOK 23/19 Q1012 NOSIG
  • 272300Z AUTO 07005KT CAVOK 24/19 Q1012 NOSIG
  • 272230Z AUTO 06004KT CAVOK 24/20 Q1012 NOSIG

TAF TAF LFBZ
Valide du 28 à 00h jusqu'au 29 à 00h UTC


272300Z 2800/2824 10010KT CAVOK
PROB30 2808/2818 30010KT BKN008
TEMPO 2818/2824 26015G25KT SHRA BKN008 SCT060CB
Pas de NOTAMs connus pour ce terrain.



MET'MAP, la Météo Aéronautique d'un coup d'oeil ! - Copyright ORBIFLY Décembre 2007 - Disclaimer

ORBIFLY MET'MAP TEAM :

Programmation & Développement : Alexandra Zaïnal
Conception & Développement : Baudouin d'Aumeries
Co-Programmation & Développement : Marc-Olivier Méhu
Soutien technique & logistique : Manuel Goepfert

Contact : metmap@orbifly.com




SOURCES & CREDITS :

   NOAA